Time;durP1;ratioP1;P1;durP2;ratioP2;P2;SDS_P1;SDS_P2;PMS_P1;PMS_P2;Temp;Humidity;BMP_temperature;BMP_pressure;BME280_temperature;BME280_humidity;BME280_pressure;Samples;Min_cycle;Max_cycle;Signal;HPM_P1;HPM_P2
2024/01/24 00:02:17;;;;;;;1.10;1.00;;;7.30;1.00;;;;;;5077315;28;20243;-74
2024/01/24 00:04:43;;;;;;;1.20;1.10;;;7.30;1.00;;;;;;5094358;28;20561;-70
2024/01/24 00:07:09;;;;;;;1.20;1.10;;;7.30;1.00;;;;;;5095342;28;20260;-73
2024/01/24 00:09:35;;;;;;;1.20;1.10;;;7.40;1.00;;;;;;5077426;28;20185;-72
2024/01/24 00:12:01;;;;;;;1.20;1.10;;;7.40;1.00;;;;;;5095279;28;20173;-71
2024/01/24 00:14:26;;;;;;;1.20;1.10;;;7.40;1.00;;;;;;5094318;28;20504;-73
2024/01/24 00:16:52;;;;;;;1.20;1.10;;;7.50;1.00;;;;;;5095206;28;20253;-75
2024/01/24 00:19:18;;;;;;;1.20;1.10;;;7.50;1.00;;;;;;5095115;28;20909;-72
2024/01/24 00:21:45;;;;;;;1.10;1.00;;;7.60;1.00;;;;;;5076968;28;20534;-70
2024/01/24 00:24:11;;;;;;;1.20;1.10;;;7.60;1.00;;;;;;5093183;28;20211;-74
2024/01/24 00:26:40;;;;;;;1.10;1.00;;;7.60;1.00;;;;;;5076927;28;20829;-72
2024/01/24 00:29:06;;;;;;;1.10;1.00;;;7.60;1.00;;;;;;5094915;28;20407;-69
2024/01/24 00:31:31;;;;;;;1.10;1.00;;;7.60;1.00;;;;;;5076816;28;20427;-70
2024/01/24 00:33:57;;;;;;;0.90;0.80;;;7.70;1.00;;;;;;5093902;28;20252;-73
2024/01/24 00:36:23;;;;;;;1.10;1.00;;;7.80;1.00;;;;;;5076859;28;20204;-72
2024/01/24 00:38:51;;;;;;;1.10;1.00;;;7.80;1.00;;;;;;5076853;28;20424;-73
2024/01/24 00:41:16;;;;;;;1.10;1.00;;;7.80;1.00;;;;;;5094567;28;20857;-69
2024/01/24 00:43:42;;;;;;;1.20;1.10;;;7.90;1.00;;;;;;5093865;28;20404;-70
2024/01/24 00:46:08;;;;;;;1.10;1.00;;;7.90;1.00;;;;;;5076559;28;20173;-73
2024/01/24 00:48:34;;;;;;;1.17;1.07;;;8.00;1.00;;;;;;5094407;28;20772;-73
2024/01/24 00:50:59;;;;;;;1.10;1.00;;;8.00;1.00;;;;;;5076404;28;20423;-71
2024/01/24 00:53:28;;;;;;;1.20;1.10;;;8.10;1.00;;;;;;5093547;28;20640;-69
2024/01/24 00:55:56;;;;;;;1.20;1.10;;;8.10;1.00;;;;;;5076266;28;20250;-74
2024/01/24 00:58:22;;;;;;;0.90;0.80;;;8.20;1.00;;;;;;5094345;28;20412;-74
2024/01/24 01:00:47;;;;;;;1.20;1.10;;;8.20;1.00;;;;;;5094302;28;20432;-74
2024/01/24 01:03:13;;;;;;;1.10;1.00;;;8.30;1.00;;;;;;5075373;28;20886;-70
2024/01/24 01:05:39;;;;;;;1.10;1.00;;;8.30;1.00;;;;;;5075988;28;20288;-75
2024/01/24 01:08:05;;;;;;;1.20;1.10;;;8.30;1.00;;;;;;5094235;28;20178;-74
2024/01/24 01:10:31;;;;;;;1.10;1.00;;;8.40;1.00;;;;;;5094211;28;20168;-75
2024/01/24 01:12:57;;;;;;;1.10;1.00;;;8.50;1.00;;;;;;5093290;28;20410;-74
2024/01/24 01:15:24;;;;;;;1.10;1.00;;;8.60;1.00;;;;;;5093950;28;20456;-74
2024/01/24 01:17:50;;;;;;;1.07;0.97;;;8.70;1.00;;;;;;5094081;28;20194;-74
2024/01/24 01:20:19;;;;;;;1.20;1.10;;;8.80;1.00;;;;;;5059288;28;20740;-73
2024/01/24 01:22:46;;;;;;;1.10;1.00;;;8.90;4.70;;;;;;5093742;28;21012;-70
2024/01/24 01:25:12;;;;;;;1.10;1.00;;;9.10;9.20;;;;;;5075632;28;20444;-70
2024/01/24 01:27:39;;;;;;;1.10;1.00;;;9.20;14.10;;;;;;5093833;28;20738;-70
2024/01/24 01:30:06;;;;;;;1.10;1.00;;;9.30;15.70;;;;;;5093839;28;20161;-69
2024/01/24 01:32:32;;;;;;;1.00;0.90;;;9.40;18.40;;;;;;5075694;28;20386;-71
2024/01/24 01:34:57;;;;;;;1.00;0.90;;;9.50;19.40;;;;;;5092483;28;20479;-74
2024/01/24 01:37:23;;;;;;;0.90;0.80;;;9.60;20.70;;;;;;5093863;28;20223;-69
2024/01/24 01:39:50;;;;;;;1.10;1.00;;;9.70;22.10;;;;;;5075747;28;20177;-75
2024/01/24 01:42:15;;;;;;;1.00;0.90;;;9.70;24.40;;;;;;5093701;28;20429;-74
2024/01/24 01:44:48;;;;;;;1.00;0.90;;;9.80;24.80;;;;;;5092743;28;20943;-73
2024/01/24 01:47:15;;;;;;;1.00;0.90;;;9.90;26.00;;;;;;5093702;28;20175;-73
2024/01/24 01:49:45;;;;;;;0.90;0.80;;;9.90;26.70;;;;;;5075968;28;20458;-74
2024/01/24 01:52:11;;;;;;;1.10;1.00;;;10.00;25.60;;;;;;5075429;28;20422;-71
2024/01/24 01:54:38;;;;;;;0.80;0.70;;;10.10;26.50;;;;;;5074407;28;20442;-70
2024/01/24 01:57:06;;;;;;;0.90;0.80;;;10.20;27.40;;;;;;5093534;28;20418;-72
2024/01/24 01:59:41;;;;;;;0.97;0.87;;;10.20;27.10;;;;;;5093399;28;20397;-71
2024/01/24 02:02:08;;;;;;;1.00;0.90;;;10.20;25.80;;;;;;5058757;28;20444;-73
2024/01/24 02:04:33;;;;;;;1.10;1.00;;;10.20;25.80;;;;;;5092408;28;20582;-73
2024/01/24 02:07:00;;;;;;;1.00;0.90;;;10.30;25.80;;;;;;5093368;28;20510;-72
2024/01/24 02:09:26;;;;;;;0.90;0.80;;;10.30;23.70;;;;;;5075276;28;20633;-74
2024/01/24 02:11:52;;;;;;;0.90;0.80;;;10.40;24.50;;;;;;5093192;28;20446;-71
2024/01/24 02:14:18;;;;;;;1.00;0.90;;;10.40;22.40;;;;;;5092519;28;20943;-71
2024/01/24 02:16:44;;;;;;;1.00;0.90;;;10.40;20.50;;;;;;5093384;28;20645;-72
2024/01/24 02:19:10;;;;;;;1.20;1.10;;;10.40;20.50;;;;;;5075613;28;20169;-73
2024/01/24 02:21:36;;;;;;;1.00;0.90;;;10.40;20.20;;;;;;5093200;28;21022;-73
2024/01/24 02:24:03;;;;;;;1.00;0.90;;;10.40;20.10;;;;;;5092311;28;20886;-73
2024/01/24 02:26:29;;;;;;;1.00;0.90;;;10.50;19.90;;;;;;5074970;28;20724;-71
2024/01/24 02:28:55;;;;;;;0.80;0.80;;;10.50;20.50;;;;;;5093220;28;20386;-73
2024/01/24 02:31:23;;;;;;;0.97;0.87;;;10.60;21.40;;;;;;5075601;28;20920;-73
2024/01/24 02:33:49;;;;;;;1.00;0.90;;;10.60;23.00;;;;;;5074439;28;20178;-73
2024/01/24 02:36:15;;;;;;;1.10;1.00;;;10.70;24.80;;;;;;5093171;28;20378;-72
2024/01/24 02:38:43;;;;;;;1.00;0.90;;;10.70;25.20;;;;;;5093227;28;20226;-74
2024/01/24 02:41:11;;;;;;;0.90;0.80;;;10.70;24.40;;;;;;5093033;28;20236;-72
2024/01/24 02:43:37;;;;;;;1.00;0.90;;;10.80;25.60;;;;;;5092375;28;20396;-73
2024/01/24 02:46:05;;;;;;;1.00;0.90;;;10.90;25.20;;;;;;5092983;28;20763;-73
2024/01/24 02:48:31;;;;;;;0.90;0.80;;;10.90;23.20;;;;;;5097278;28;20721;-72
2024/01/24 02:50:57;;;;;;;1.00;0.90;;;10.90;17.50;;;;;;5096964;28;20422;-70
2024/01/24 02:53:24;;;;;;;1.00;0.90;;;11.00;6.00;;;;;;5096375;28;20177;-70
2024/01/24 02:55:51;;;;;;;1.00;0.90;;;11.10;1.00;;;;;;5079068;28;20193;-70
2024/01/24 02:58:18;;;;;;;1.00;0.90;;;11.10;1.00;;;;;;5096989;28;20455;-70
2024/01/24 03:00:44;;;;;;;0.90;0.80;;;11.10;1.00;;;;;;5078559;28;20926;-69
2024/01/24 03:03:11;;;;;;;1.00;0.90;;;11.10;1.00;;;;;;5077823;28;20447;-71
2024/01/24 03:05:38;;;;;;;0.90;0.80;;;11.10;1.00;;;;;;5096584;28;20752;-69
2024/01/24 03:08:04;;;;;;;0.90;0.80;;;11.20;1.00;;;;;;5096458;28;20389;-74
2024/01/24 03:10:31;;;;;;;0.90;0.80;;;11.20;1.00;;;;;;5096449;28;20415;-71
2024/01/24 03:12:57;;;;;;;0.90;0.80;;;11.20;1.00;;;;;;5095759;28;20374;-69
2024/01/24 03:15:22;;;;;;;0.80;0.70;;;11.20;1.00;;;;;;5096434;28;20757;-70
2024/01/24 03:17:48;;;;;;;1.00;0.90;;;11.20;1.00;;;;;;5096547;28;20170;-68
2024/01/24 03:20:14;;;;;;;0.90;0.80;;;11.30;1.00;;;;;;5096332;28;20203;-72
2024/01/24 03:22:41;;;;;;;0.90;0.80;;;11.30;1.00;;;;;;5077856;28;20577;-79
2024/01/24 03:25:07;;;;;;;0.90;0.80;;;11.30;1.00;;;;;;5077359;28;20419;-70
2024/01/24 03:27:32;;;;;;;0.90;0.80;;;11.20;1.00;;;;;;5096441;28;20426;-72
2024/01/24 03:29:59;;;;;;;1.00;0.90;;;11.20;1.00;;;;;;5096262;28;20869;-70
2024/01/24 03:32:25;;;;;;;1.00;0.90;;;11.20;1.00;;;;;;5096056;28;20211;-70
2024/01/24 03:34:54;;;;;;;1.00;0.90;;;11.10;1.00;;;;;;5095106;28;20428;-68
2024/01/24 03:37:20;;;;;;;0.90;0.80;;;11.10;1.00;;;;;;5096055;28;20428;-71
2024/01/24 03:39:46;;;;;;;0.90;0.80;;;11.10;1.00;;;;;;5077840;28;20878;-68
2024/01/24 03:42:12;;;;;;;1.00;0.90;;;11.10;1.00;;;;;;5095916;28;20284;-71
2024/01/24 03:44:37;;;;;;;1.10;1.00;;;11.10;1.00;;;;;;5094774;28;20190;-72
2024/01/24 03:47:03;;;;;;;1.00;0.90;;;11.10;1.00;;;;;;5095950;28;20169;-67
2024/01/24 03:49:29;;;;;;;1.70;1.60;;;11.00;1.00;;;;;;5095752;28;20691;-72
2024/01/24 03:51:55;;;;;;;0.90;0.80;;;11.10;1.00;;;;;;5095711;28;20212;-67
2024/01/24 03:54:22;;;;;;;1.30;1.20;;;11.00;1.00;;;;;;5094764;28;20728;-67
2024/01/24 03:56:48;;;;;;;1.00;0.90;;;11.10;99.90;;;;;;5077389;28;20401;-73
2024/01/24 03:59:14;;;;;;;1.00;0.90;;;11.10;99.90;;;;;;5095397;28;20401;-68
2024/01/24 04:01:39;;;;;;;0.93;0.83;;;11.10;99.90;;;;;;5095465;28;20432;-67
2024/01/24 04:04:05;;;;;;;1.00;0.90;;;11.10;99.90;;;;;;5094626;28;20419;-71
2024/01/24 04:06:31;;;;;;;1.00;0.90;;;11.10;99.90;;;;;;5095346;28;20216;-68
2024/01/24 04:08:56;;;;;;;1.00;0.90;;;11.10;99.90;;;;;;5095297;28;20172;-71
2024/01/24 04:11:22;;;;;;;1.00;0.90;;;11.00;99.90;;;;;;5095442;28;20173;-67
2024/01/24 04:13:53;;;;;;;1.00;0.90;;;11.00;99.90;;;;;;5094326;28;20503;-69
2024/01/24 04:16:19;;;;;;;1.03;0.93;;;11.00;99.90;;;;;;5077513;28;20178;-68
2024/01/24 04:18:45;;;;;;;1.07;0.97;;;11.00;99.90;;;;;;5095152;28;20800;-68
2024/01/24 04:21:11;;;;;;;16.10;3.63;;;11.00;99.90;;;;;;5076881;28;20967;-68
2024/01/24 04:23:36;;;;;;;12.83;4.30;;;11.10;99.90;;;;;;5094293;28;20411;-75
2024/01/24 04:26:06;;;;;;;17.03;5.30;;;11.00;99.90;;;;;;5094995;28;20217;-69
2024/01/24 04:28:32;;;;;;;7.60;4.53;;;11.00;99.90;;;;;;5095125;28;20503;-73
2024/01/24 04:30:58;;;;;;;10.60;4.67;;;11.00;99.90;;;;;;5094930;28;20392;-68
2024/01/24 04:33:24;;;;;;;16.13;4.87;;;11.00;99.90;;;;;;5094045;28;20613;-75
2024/01/24 04:35:50;;;;;;;14.50;3.80;;;11.00;99.90;;;;;;5094775;28;20197;-74
2024/01/24 04:38:16;;;;;;;13.80;4.57;;;11.00;99.90;;;;;;5094894;28;20400;-69
2024/01/24 04:40:42;;;;;;;20.63;5.30;;;11.00;99.90;;;;;;5094850;28;20215;-76
2024/01/24 04:43:08;;;;;;;10.90;4.10;;;11.00;99.90;;;;;;5093722;28;20198;-70
2024/01/24 04:45:34;;;;;;;14.97;4.00;;;11.00;99.90;;;;;;5094632;28;20186;-76
2024/01/24 04:48:00;;;;;;;14.30;3.97;;;11.00;99.90;;;;;;5094573;28;20800;-78
2024/01/24 04:50:25;;;;;;;18.27;5.03;;;11.00;99.90;;;;;;5094782;28;20166;-75
2024/01/24 04:52:51;;;;;;;10.70;4.23;;;11.00;99.90;;;;;;5093719;28;20534;-76
2024/01/24 04:55:17;;;;;;;14.63;5.37;;;11.00;99.90;;;;;;5094348;28;20694;-76
2024/01/24 04:57:42;;;;;;;15.60;4.80;;;10.90;99.90;;;;;;5094491;28;20176;-72
2024/01/24 05:00:09;;;;;;;16.67;6.13;;;10.90;99.90;;;;;;5094486;28;20177;-74
2024/01/24 05:02:37;;;;;;;20.90;5.43;;;10.90;99.90;;;;;;5094243;28;20185;-74
2024/01/24 05:05:06;;;;;;;11.47;3.60;;;10.90;99.90;;;;;;5093264;28;20401;-70
2024/01/24 05:07:35;;;;;;;19.10;4.87;;;10.80;99.90;;;;;;5094142;28;20413;-75
2024/01/24 05:10:02;;;;;;;16.97;5.60;;;10.80;99.90;;;;;;5093634;28;20381;-76
2024/01/24 05:12:28;;;;;;;11.27;4.10;;;10.80;85.60;;;;;;5094263;28;20373;-75
2024/01/24 05:14:53;;;;;;;26.23;5.70;;;10.80;70.70;;;;;;5093161;28;20797;-71
2024/01/24 05:17:19;;;;;;;17.73;5.00;;;10.80;61.40;;;;;;5075799;28;20538;-71
2024/01/24 05:19:45;;;;;;;15.93;5.07;;;10.70;52.00;;;;;;5094050;28;20208;-70
2024/01/24 05:22:11;;;;;;;23.13;5.50;;;10.70;32.60;;;;;;5094008;28;20238;-75
2024/01/24 05:24:36;;;;;;;19.73;4.60;;;10.70;25.40;;;;;;5093047;28;20709;-75
2024/01/24 05:27:02;;;;;;;16.03;6.13;;;10.60;14.80;;;;;;5094009;28;20171;-70
2024/01/24 05:29:28;;;;;;;18.90;5.33;;;10.60;9.90;;;;;;5093759;28;20173;-70
2024/01/24 05:31:53;;;;;;;31.10;6.30;;;10.50;4.00;;;;;;5093809;28;20178;-71
2024/01/24 05:34:19;;;;;;;17.10;5.03;;;10.50;1.00;;;;;;5092802;28;20193;-75
2024/01/24 05:36:44;;;;;;;23.30;6.10;;;10.50;1.00;;;;;;5093814;28;20169;-74
2024/01/24 05:39:10;;;;;;;28.33;6.03;;;10.50;1.00;;;;;;5075887;28;20177;-75
2024/01/24 05:41:36;;;;;;;15.07;5.90;;;10.50;1.00;;;;;;5093589;28;20196;-76
2024/01/24 05:44:02;;;;;;;23.27;5.87;;;10.40;1.00;;;;;;5092906;28;20196;-75
2024/01/24 05:46:27;;;;;;;26.00;6.63;;;10.40;1.00;;;;;;5075565;28;20199;-73
2024/01/24 05:48:53;;;;;;;23.40;7.03;;;10.40;1.00;;;;;;5093647;28;20180;-73
2024/01/24 05:51:18;;;;;;;32.80;7.53;;;10.40;1.00;;;;;;5093556;28;20302;-72
2024/01/24 05:53:44;;;;;;;14.10;5.30;;;10.40;1.00;;;;;;5074626;28;20181;-73
2024/01/24 05:56:10;;;;;;;23.50;5.90;;;10.30;1.00;;;;;;5093614;28;20169;-76
2024/01/24 05:58:37;;;;;;;27.10;5.73;;;10.30;1.00;;;;;;5093617;28;20180;-71
2024/01/24 06:01:05;;;;;;;36.70;7.10;;;10.30;1.00;;;;;;5093357;28;20169;-72
2024/01/24 06:03:32;;;;;;;31.20;6.53;;;10.20;1.00;;;;;;5092455;28;20387;-75
2024/01/24 06:05:57;;;;;;;22.10;6.73;;;10.20;1.00;;;;;;5093108;28;20454;-75
2024/01/24 06:08:23;;;;;;;23.37;7.97;;;10.20;1.00;;;;;;5093409;28;20405;-71
2024/01/24 06:10:49;;;;;;;29.63;7.57;;;10.10;1.00;;;;;;5093452;28;20176;-72
2024/01/24 06:13:14;;;;;;;23.20;5.33;;;10.20;1.00;;;;;;5092419;28;20174;-72
2024/01/24 06:15:40;;;;;;;41.07;7.50;;;10.10;1.00;;;;;;5093075;28;20192;-75
2024/01/24 06:18:06;;;;;;;26.27;6.57;;;10.10;1.00;;;;;;5093276;28;20180;-72
2024/01/24 06:20:32;;;;;;;41.97;8.07;;;10.10;1.00;;;;;;5094259;28;20526;-70
2024/01/24 06:22:57;;;;;;;15.17;4.73;;;10.00;1.00;;;;;;5096493;28;20463;-76
2024/01/24 06:25:23;;;;;;;25.90;7.40;;;10.00;1.00;;;;;;5079221;28;20249;-75
2024/01/24 06:27:48;;;;;;;33.47;8.03;;;10.00;1.00;;;;;;5097295;28;20513;-75
2024/01/24 06:30:14;;;;;;;19.03;5.90;;;10.00;1.00;;;;;;5079300;28;20188;-75
2024/01/24 06:32:40;;;;;;;27.20;6.93;;;9.90;1.00;;;;;;5097157;28;20221;-76
2024/01/24 06:35:08;;;;;;;24.03;6.57;;;10.00;1.00;;;;;;5096458;28;20439;-72
2024/01/24 06:37:33;;;;;;;16.10;6.03;;;10.00;1.00;;;;;;5097194;28;20245;-71
2024/01/24 06:40:00;;;;;;;20.23;7.50;;;10.00;1.00;;;;;;5078834;28;20431;-76
2024/01/24 06:42:26;;;;;;;23.23;7.20;;;10.00;1.00;;;;;;5097007;28;20683;-76
2024/01/24 06:44:51;;;;;;;22.20;6.93;;;10.00;1.00;;;;;;5096032;28;20513;-75
2024/01/24 06:47:17;;;;;;;28.93;5.90;;;10.00;1.00;;;;;;5096954;28;20408;-74
2024/01/24 06:49:43;;;;;;;19.53;7.27;;;9.90;99.90;;;;;;5096916;28;20177;-76
2024/01/24 06:52:08;;;;;;;20.20;5.50;;;10.00;99.90;;;;;;5096777;28;20528;-72
2024/01/24 06:54:35;;;;;;;21.70;5.77;;;10.00;99.90;;;;;;5095842;28;20196;-78
2024/01/24 06:57:06;;;;;;;32.60;10.10;;;10.00;99.90;;;;;;5096554;28;20262;-77
2024/01/24 06:59:31;;;;;;;27.90;6.83;;;10.00;99.90;;;;;;5078708;28;20423;-75
2024/01/24 07:01:58;;;;;;;19.93;6.00;;;10.00;99.90;;;;;;5096525;28;20506;-72
2024/01/24 07:04:24;;;;;;;20.53;6.33;;;9.90;99.90;;;;;;5095662;28;20492;-75
2024/01/24 07:06:50;;;;;;;25.97;7.60;;;9.90;99.90;;;;;;5096461;28;20471;-71
2024/01/24 07:09:16;;;;;;;25.47;7.50;;;9.90;99.90;;;;;;5096542;28;20402;-71
2024/01/24 07:11:42;;;;;;;37.23;7.67;;;9.90;99.90;;;;;;5078588;28;20186;-74
2024/01/24 07:14:07;;;;;;;31.10;8.20;;;9.90;99.90;;;;;;5095332;28;20596;-71
2024/01/24 07:16:33;;;;;;;32.17;6.50;;;9.80;99.90;;;;;;5096310;28;20169;-72
2024/01/24 07:18:59;;;;;;;29.93;8.60;;;9.80;99.90;;;;;;5078378;28;20188;-75
2024/01/24 07:21:25;;;;;;;30.50;8.07;;;9.80;99.90;;;;;;5096338;28;20196;-76
2024/01/24 07:23:51;;;;;;;35.03;8.63;;;9.80;99.90;;;;;;5095395;28;20200;-71
2024/01/24 07:26:16;;;;;;;23.47;6.40;;;9.80;99.90;;;;;;5096132;28;20374;-73
2024/01/24 07:28:42;;;;;;;38.20;7.43;;;9.80;99.90;;;;;;5096194;28;20624;-76
2024/01/24 07:31:08;;;;;;;31.83;6.70;;;9.80;99.90;;;;;;5096134;28;20243;-70
2024/01/24 07:33:33;;;;;;;23.43;7.77;;;9.80;99.90;;;;;;5094630;28;20173;-73
2024/01/24 07:35:59;;;;;;;30.70;8.60;;;9.80;99.90;;;;;;5095966;28;20206;-69
2024/01/24 07:38:25;;;;;;;25.47;7.43;;;9.80;99.90;;;;;;5077762;28;20176;-76
2024/01/24 07:40:50;;;;;;;18.97;6.03;;;9.80;99.90;;;;;;5077796;28;20253;-72
2024/01/24 07:43:16;;;;;;;16.70;4.80;;;9.80;99.90;;;;;;5094916;28;20202;-74
2024/01/24 07:45:42;;;;;;;18.73;6.00;;;9.70;99.90;;;;;;5095937;28;20240;-71
2024/01/24 07:48:08;;;;;;;29.53;7.50;;;9.80;99.90;;;;;;5095771;28;20171;-76
2024/01/24 07:50:34;;;;;;;23.93;7.57;;;9.80;99.90;;;;;;5095714;28;20194;-72
2024/01/24 07:52:59;;;;;;;31.97;7.43;;;9.70;99.90;;;;;;5094845;28;20773;-73
2024/01/24 07:55:25;;;;;;;42.13;6.90;;;9.70;99.90;;;;;;5095530;28;20194;-76
2024/01/24 07:57:51;;;;;;;43.70;7.80;;;9.70;99.90;;;;;;5095710;28;20179;-76
2024/01/24 08:00:17;;;;;;;20.77;7.67;;;9.80;99.90;;;;;;5095615;28;20660;-75
2024/01/24 08:02:46;;;;;;;32.87;7.37;;;9.70;99.90;;;;;;5095210;28;20199;-75
2024/01/24 08:05:14;;;;;;;18.90;7.43;;;9.70;99.90;;;;;;5094722;28;20441;-72
2024/01/24 08:07:43;;;;;;;21.77;6.40;;;9.70;99.90;;;;;;5077331;28;20745;-71
2024/01/24 08:10:11;;;;;;;38.43;8.13;;;9.70;99.90;;;;;;5095365;28;20371;-75
2024/01/24 08:12:40;;;;;;;27.00;7.00;;;9.70;99.90;;;;;;5095293;28;20410;-71
2024/01/24 08:15:07;;;;;;;43.43;9.80;;;9.70;99.90;;;;;;5094461;28;21004;-71
2024/01/24 08:17:36;;;;;;;30.13;8.00;;;9.70;99.90;;;;;;5095218;28;20398;-75
2024/01/24 08:20:04;;;;;;;31.53;7.30;;;9.70;99.90;;;;;;5095059;28;20383;-69
2024/01/24 08:22:30;;;;;;;38.83;7.53;;;9.70;99.90;;;;;;5095008;28;20995;-70
2024/01/24 08:24:57;;;;;;;34.33;6.97;;;9.70;99.90;;;;;;5093979;28;20399;-75
2024/01/24 08:27:23;;;;;;;26.70;7.90;;;9.60;99.90;;;;;;5095098;28;20411;-74
2024/01/24 08:29:48;;;;;;;27.60;9.23;;;9.70;99.90;;;;;;5095030;28;20400;-74
2024/01/24 08:32:14;;;;;;;36.13;8.40;;;9.60;99.90;;;;;;5077083;28;20509;-71
2024/01/24 08:34:40;;;;;;;35.10;8.07;;;9.60;99.90;;;;;;5093844;28;20215;-74
2024/01/24 08:37:06;;;;;;;36.37;7.20;;;9.60;99.90;;;;;;5076599;28;20336;-77
2024/01/24 08:39:32;;;;;;;29.87;9.10;;;9.60;99.90;;;;;;5076679;28;20685;-70
2024/01/24 08:41:58;;;;;;;37.63;9.33;;;9.60;99.90;;;;;;5094676;28;20457;-71
2024/01/24 08:44:24;;;;;;;49.13;8.80;;;9.60;99.90;;;;;;5092759;28;20504;-76
2024/01/24 08:46:50;;;;;;;44.43;8.00;;;9.60;99.90;;;;;;5094685;28;20172;-74
2024/01/24 08:49:16;;;;;;;42.27;9.20;;;9.50;99.90;;;;;;5076461;28;20166;-76
2024/01/24 08:51:42;;;;;;;36.67;8.47;;;9.50;99.90;;;;;;5094455;28;20390;-71
2024/01/24 08:54:08;;;;;;;37.13;8.50;;;9.50;99.90;;;;;;5093502;28;20582;-76
2024/01/24 08:56:34;;;;;;;36.10;10.57;;;9.50;99.90;;;;;;5094468;28;20641;-70
2024/01/24 08:58:59;;;;;;;28.70;8.90;;;9.50;99.90;;;;;;5076507;28;20182;-70
2024/01/24 09:01:27;;;;;;;38.73;8.20;;;9.50;99.90;;;;;;5094266;28;20770;-76
2024/01/24 09:03:53;;;;;;;29.70;7.53;;;9.40;99.90;;;;;;5093439;28;20166;-71
2024/01/24 09:06:20;;;;;;;35.13;8.60;;;9.40;99.90;;;;;;5094191;28;20807;-69
2024/01/24 09:08:51;;;;;;;35.43;8.70;;;9.40;99.90;;;;;;5094192;28;20168;-70
2024/01/24 09:11:18;;;;;;;39.20;8.20;;;9.50;99.90;;;;;;5094042;28;20406;-70
2024/01/24 09:13:43;;;;;;;26.20;8.10;;;9.60;99.90;;;;;;5074958;28;20426;-71
2024/01/24 09:16:09;;;;;;;27.07;8.57;;;9.60;99.90;;;;;;5076149;28;20438;-75
2024/01/24 09:18:35;;;;;;;38.13;9.70;;;9.60;99.90;;;;;;5094041;28;20376;-76
2024/01/24 09:21:01;;;;;;;26.90;8.80;;;9.60;99.90;;;;;;5093872;28;20388;-75
2024/01/24 09:23:27;;;;;;;36.90;9.13;;;9.50;99.90;;;;;;5092866;28;20202;-71
2024/01/24 09:25:52;;;;;;;36.07;9.17;;;9.40;99.90;;;;;;5076204;28;20940;-73
2024/01/24 09:28:18;;;;;;;32.70;10.80;;;9.40;99.90;;;;;;5093809;28;20170;-71
2024/01/24 09:30:43;;;;;;;37.43;11.10;;;9.40;99.90;;;;;;5093853;28;20172;-76
2024/01/24 09:33:09;;;;;;;32.33;9.57;;;9.40;99.90;;;;;;5092871;28;20180;-77
2024/01/24 09:35:35;;;;;;;28.93;8.67;;;9.40;99.90;;;;;;5093637;28;20196;-76
2024/01/24 09:38:01;;;;;;;38.70;8.97;;;9.40;99.90;;;;;;5075852;28;20181;-72
2024/01/24 09:40:26;;;;;;;30.57;7.67;;;9.30;99.90;;;;;;5093690;28;20582;-70
2024/01/24 09:42:52;;;;;;;43.17;10.03;;;9.20;99.90;;;;;;5092619;28;20211;-72
2024/01/24 09:45:20;;;;;;;41.33;9.70;;;9.20;99.90;;;;;;5075492;28;20234;-76
2024/01/24 09:47:49;;;;;;;32.67;9.13;;;9.20;99.90;;;;;;5093507;28;20212;-77
2024/01/24 09:50:15;;;;;;;41.93;10.83;;;9.20;99.90;;;;;;5093499;28;20407;-71
2024/01/24 09:52:41;;;;;;;39.90;9.13;;;9.10;99.90;;;;;;5093132;28;20410;-72
2024/01/24 09:55:13;;;;;;;37.10;9.17;;;9.10;99.90;;;;;;5092328;28;20205;-77
2024/01/24 09:57:39;;;;;;;40.47;9.60;;;9.10;99.90;;;;;;5093410;28;20964;-76
2024/01/24 10:00:06;;;;;;;45.13;9.07;;;9.00;99.90;;;;;;5075583;28;20400;-71
2024/01/24 10:02:32;;;;;;;28.60;8.17;;;9.00;99.90;;;;;;5093390;28;20444;-72
2024/01/24 10:04:59;;;;;;;51.47;10.00;;;9.00;99.90;;;;;;5092392;28;20444;-72
2024/01/24 10:07:26;;;;;;;41.80;9.60;;;9.00;99.90;;;;;;5093338;28;20177;-72
2024/01/24 10:10:15;;;;;;;36.70;9.93;;;9.00;99.90;;;;;;5093303;28;20412;-77
2024/01/24 10:12:44;;;;;;;49.50;9.17;;;9.10;99.90;;;;;;5074956;28;20876;-77
2024/01/24 10:15:13;;;;;;;43.23;9.70;;;9.10;99.90;;;;;;5074395;28;20461;-78
2024/01/24 10:17:43;;;;;;;32.60;8.63;;;9.10;99.90;;;;;;5074985;28;20413;-72
2024/01/24 10:20:11;;;;;;;42.80;9.23;;;9.10;99.90;;;;;;5093340;28;20401;-73
2024/01/24 10:22:43;;;;;;;46.00;10.13;;;9.00;99.90;;;;;;5093243;28;20451;-79
2024/01/24 10:25:10;;;;;;;28.27;8.50;;;9.00;99.90;;;;;;5092404;28;20402;-78
2024/01/24 10:27:38;;;;;;;35.83;9.90;;;8.90;99.90;;;;;;5084014;28;20475;-77
2024/01/24 10:30:15;;;;;;;36.60;9.53;;;9.00;99.90;;;;;;5072871;28;20409;-77
2024/01/24 10:32:46;;;;;;;34.23;10.90;;;9.00;99.90;;;;;;5072678;28;20422;-72
2024/01/24 10:35:12;;;;;;;30.70;9.50;;;8.90;99.90;;;;;;5072328;28;20933;-71
2024/01/24 10:37:40;;;;;;;40.87;10.30;;;8.80;99.90;;;;;;5054934;28;20451;-72
2024/01/24 10:40:13;;;;;;;31.60;9.57;;;8.70;99.90;;;;;;5072838;28;20417;-70
2024/01/24 10:42:41;;;;;;;34.80;9.00;;;8.60;1.00;;;;;;5072986;28;20471;-71
2024/01/24 10:45:08;;;;;;;44.20;11.33;;;8.50;1.00;;;;;;5072032;28;20416;-75
2024/01/24 10:47:34;;;;;;;37.20;9.17;;;8.40;1.00;;;;;;5054716;28;20408;-76
2024/01/24 10:50:05;;;;;;;39.50;9.07;;;8.30;1.00;;;;;;5072662;28;20881;-77
2024/01/24 10:52:33;;;;;;;39.70;9.40;;;8.20;1.00;;;;;;5054790;28;20408;-78
2024/01/24 10:55:05;;;;;;;48.60;9.63;;;8.20;1.00;;;;;;5071819;28;20834;-77
2024/01/24 10:57:33;;;;;;;52.07;10.37;;;8.20;1.00;;;;;;5072812;28;20408;-71
2024/01/24 10:59:59;;;;;;;32.00;7.93;;;8.10;1.00;;;;;;5072647;28;20412;-77
2024/01/24 11:02:25;;;;;;;37.40;11.23;;;8.00;1.00;;;;;;5072572;28;20452;-71
2024/01/24 11:04:52;;;;;;;49.60;10.80;;;8.00;1.00;;;;;;5071706;28;20450;-75
2024/01/24 11:07:26;;;;;;;42.77;9.60;;;8.00;1.00;;;;;;5072611;28;20220;-71
2024/01/24 11:10:09;;;;;;;44.67;10.73;;;8.00;1.00;;;;;;5076188;28;20397;-76
2024/01/24 11:12:35;;;;;;;32.20;9.33;;;8.00;8.80;;;;;;5058409;28;20403;-73
2024/01/24 11:15:08;;;;;;;37.77;8.90;;;8.00;13.80;;;;;;5057258;28;20428;-78
2024/01/24 11:17:34;;;;;;;31.93;8.30;;;8.00;31.00;;;;;;5076080;28;20383;-74
2024/01/24 11:20:07;;;;;;;36.87;10.07;;;8.00;31.00;;;;;;5076024;28;20896;-71
2024/01/24 11:22:34;;;;;;;32.77;9.73;;;8.00;34.50;;;;;;5075818;28;20456;-75
2024/01/24 11:24:59;;;;;;;33.40;8.57;;;8.00;61.50;;;;;;5075046;28;20427;-76
2024/01/24 11:27:35;;;;;;;42.03;8.90;;;8.00;79.70;;;;;;5058227;28;20416;-76
2024/01/24 11:30:13;;;;;;;31.20;8.00;;;7.90;95.60;;;;;;5075953;28;20299;-73
2024/01/24 11:32:45;;;;;;;34.13;9.57;;;7.90;99.90;;;;;;5075852;28;20401;-72
2024/01/24 11:35:36;;;;;;;38.53;8.63;;;7.90;99.90;;;;;;5075066;28;20467;-71
2024/01/24 11:38:06;;;;;;;23.00;6.17;;;7.90;99.90;;;;;;5075857;28;20383;-75
2024/01/24 11:40:40;;;;;;;26.57;6.90;;;7.80;99.90;;;;;;5075638;28;20457;-71
2024/01/24 11:43:06;;;;;;;16.73;7.47;;;7.80;99.90;;;;;;5074788;28;20535;-74
2024/01/24 11:45:34;;;;;;;25.63;7.50;;;7.80;99.90;;;;;;5075783;28;20395;-76
2024/01/24 11:48:00;;;;;;;38.20;10.17;;;7.80;99.90;;;;;;5075752;28;20527;-71
2024/01/24 11:50:26;;;;;;;42.67;10.67;;;7.80;99.90;;;;;;5075505;28;20408;-71
2024/01/24 11:52:59;;;;;;;46.03;9.60;;;7.70;99.90;;;;;;5074561;28;20604;-71
2024/01/24 11:55:25;;;;;;;34.63;10.10;;;7.80;99.90;;;;;;5075378;28;20282;-74
2024/01/24 11:57:50;;;;;;;35.20;9.57;;;7.80;99.90;;;;;;5057504;28;20924;-70
2024/01/24 12:00:16;;;;;;;38.97;9.50;;;7.70;99.90;;;;;;5075424;28;20181;-73
2024/01/24 12:02:42;;;;;;;39.17;9.13;;;7.70;99.90;;;;;;5075066;28;20198;-70
2024/01/24 12:05:09;;;;;;;40.73;10.30;;;7.70;99.90;;;;;;5074183;28;20444;-72
2024/01/24 12:07:35;;;;;;;40.83;11.20;;;7.70;99.90;;;;;;5074985;28;20203;-74
2024/01/24 12:10:01;;;;;;;44.03;10.67;;;7.70;99.90;;;;;;5075205;28;20379;-70
2024/01/24 12:12:28;;;;;;;53.90;10.93;;;7.80;99.90;;;;;;5075160;28;20389;-75
2024/01/24 12:14:55;;;;;;;36.10;9.20;;;7.80;99.90;;;;;;5074079;28;20194;-75
2024/01/24 12:17:21;;;;;;;51.87;12.00;;;7.80;99.90;;;;;;5075092;28;20406;-70
2024/01/24 12:19:47;;;;;;;44.60;10.40;;;7.80;99.90;;;;;;5074964;28;20463;-75
2024/01/24 12:22:12;;;;;;;55.97;12.27;;;7.80;99.90;;;;;;5056900;28;20206;-72
2024/01/24 12:24:42;;;;;;;46.60;9.90;;;7.90;99.90;;;;;;5073923;28;20247;-72
2024/01/24 12:27:08;;;;;;;46.60;10.43;;;7.90;99.90;;;;;;5074840;28;20177;-75
2024/01/24 12:29:34;;;;;;;37.10;10.73;;;7.90;99.90;;;;;;5074804;28;20375;-72
2024/01/24 12:32:01;;;;;;;54.67;11.47;;;7.90;99.90;;;;;;5074750;28;20496;-74
2024/01/24 12:34:30;;;;;;;43.20;8.37;;;8.00;99.90;;;;;;5073714;28;20424;-75
2024/01/24 12:37:02;;;;;;;53.10;9.43;;;7.90;99.90;;;;;;5074515;28;20412;-73
2024/01/24 12:39:31;;;;;;;61.03;10.07;;;8.00;99.90;;;;;;5074646;28;20412;-72
2024/01/24 12:41:57;;;;;;;50.90;9.53;;;8.00;99.90;;;;;;5074411;28;20444;-75
2024/01/24 12:44:23;;;;;;;49.73;10.40;;;8.00;99.90;;;;;;5055544;28;20429;-71
2024/01/24 12:46:59;;;;;;;41.73;8.63;;;8.00;99.90;;;;;;5056601;28;20181;-72